Seattle, Washington
Traffic Map
Current Weather Conditions
Seattle, Washington
Clear
Clear

Feels Like: 4°
Wind Chill: Ceiling: Unl
Heat Index: Visibility: 10mi
Dew Point: -2° Wind: 3mph
Humidity: 65% Direction: 110° (ESE)
Pressure: 30.31in Gusts: 0mph
Raw Report DataKBFI 051153Z 11003KT 10SM CLR 04/M02 A3031 RMK AO2 SLP263 T00441017 10078 20028 50000
Traffic Incident Summary
Active as of:
Severity:
Category:
InformationThere was an issue retrieving the traffic information for this location. Please try a different location or try again shortly.
Advertisements
Track Severe Weather on mobile